Prescott, AZ (86301)

9:33 PM MST on September 01, 2015 (GMT -0700)
Prescott Heights | | Change Station
CLOSE
Current Station
Personal Weather Station
Location: Prescott, AZ
Elevation: 5305 ft
Nearby Weather Stations

Elev 5305 ft 34.55 °N, 112.47 °W | Updated 0 second ago

Clear
Clear
67.2 °F
Feels Like 67.2 °F
N
2.0
Wind Variable Wind from SW
Gusts 3.0 mph

Today
High -- | Low -- °F
--% Chance of Precip.
Yesterday
High -- | Low -- °F
Precip. -- in
6:02 AM 6:56 PM
Waning Gibbous, 83% visible
Pressure 29.92 in
Visibility 10.0 miles
Clouds Clear
Dew Point 43 °F
Humidity 42%
Rainfall 0.00 in
Snow Depth Not available.
UV 0 out of 12
Pollen 6.00 out of 12
Air Quality Not available.
Flu Activity Not available.
METAR KPRC 020353Z 19005KT 10SM CLR 23/10 A3017 RMK AO2 SLP131 T02280100
Pressure 29.92 in
Visibility 10.0 miles
Clouds Clear
Dew Point 43 °F
Humidity 42%
Rainfall 0.00 in
Snow Depth Not available.
UV 0 out of 12
Pollen 6.00 out of 12
Air Quality Not available.
Flu Activity Not available.
METAR KPRC 020353Z 19005KT 10SM CLR 23/10 A3017 RMK AO2 SLP131 T02280100

10-Day Weather Forecast

×

Almanac

Astronomy

Sep. 01, 2015 Rise Set
Actual Time
Civil Twilight
Nautical Twilight
Astronomical Twilight
Moon
Length of Visible Light
Length of Day
Tomorrow will be .
, % of the Moon is Illuminated

Today's Extremes

State Highs State Lows

Community

WunderPhotos

Upload Photos

1,851,695 photos uploaded!

WunderBlogs® & News

Nearby

Air Quality

  Air Quality AQ Index Pollutant
Not available.

Snow Depth

Station Depth Elevation

Earthquake Activity

City Distance Mag. Time & Date
Minimum magnitude displayed is 2.5.

Coastal Water Temperatures

Place Temperature

Stations

Nearby Weather Stations

Station Location Temp. Windchill Dew Point Humidity Wind Precip. Elev Updated Type